CDT,Max TemperatureF,Mean TemperatureF,Min TemperatureF,Max Dew PointF,MeanDew PointF,Min DewpointF,Max Humidity, Mean Humidity, Min Humidity, Max Sea Level PressureIn, Mean Sea Level PressureIn, Min Sea Level PressureIn, Max VisibilityMiles, Mean VisibilityMiles, Min VisibilityMiles, Max Wind SpeedMPH, Mean Wind SpeedMPH, Max Gust SpeedMPH,PrecipitationIn, CloudCover, Events, WindDirDegrees
2010-10-1,,,,,,,,,,,,,,,,,,,,,,
2010-10-2,,,,,,,,,,,,,,,,,,,,,,
2010-10-3,,,,,,,,,,,,,,,,,,,,,,
2010-10-4,,,,,,,,,,,,,,,,,,,,,,
2010-10-5,71,64,55,39,34,30,51,33,22,30.30,30.21,30.15,10,10,10,12,7,21,0.00,0,,231
2010-10-6,62,58,53,48,38,30,63,47,30,30.15,30.06,30.01,10,10,10,17,9,25,0.00,0,,293
2010-10-7,69,56,42,43,36,32,70,50,31,30.09,30.04,29.98,10,10,10,14,7,18,0.00,0,,282
2010-10-8,78,64,51,45,40,34,76,44,29,29.97,29.90,29.83,10,10,10,9,5,,0.00,0,,268
2010-10-9,75,62,48,48,44,37,82,55,34,30.03,29.98,29.94,10,10,10,10,8,16,0.00,0,,135
2010-10-10,69,58,46,52,47,45,100,72,43,29.95,29.91,29.85,10,9,0,9,2,,0.01,1,,10
2010-10-11,64,52,41,48,45,39,93,76,52,29.90,29.87,29.84,10,10,5,10,3,,0.00,4,,68
2010-10-12,73,54,35,54,45,34,100,79,50,29.97,29.89,29.84,10,9,0,16,3,23,0.00,2,,285
2010-10-13,57,46,35,43,35,28,87,63,36,30.13,30.09,30.03,10,10,10,13,7,17,0.00,0,,278
2010-10-14,60,48,35,37,32,27,75,52,34,30.06,29.89,29.72,10,10,10,20,7,30,0.00,5,,274
2010-10-15,53,48,44,43,41,37,87,74,58,30.12,30.05,29.94,10,10,10,12,5,20,0.00,7,,71
2010-10-16,60,50,41,37,34,27,76,54,29,30.00,29.91,29.84,10,10,10,20,9,29,0.00,0,,266
2010-10-17,51,42,32,34,28,27,81,60,40,30.11,30.07,30.03,10,10,10,14,7,24,0.00,0,,268
2010-10-18,50,40,30,34,27,21,87,61,34,30.08,30.02,29.93,10,10,10,16,5,21,0.00,0,,265
2010-10-19,55,46,37,36,32,27,93,58,36,29.90,29.82,29.69,10,10,10,18,11,22,0.00,3,,255
2010-10-20,53,48,44,36,30,25,66,48,33,29.66,29.57,29.53,10,10,10,24,13,33,0.00,4,,271
2010-10-21,44,40,37,32,27,23,81,58,46,29.94,29.85,29.74,10,10,9,18,12,29,0.00,6,,312
2010-10-22,60,45,30,30,27,23,75,52,27,29.97,29.91,29.80,10,10,10,16,6,24,0.00,1,,220
2010-10-23,53,43,33,45,38,28,93,74,44,29.91,29.88,29.84,10,10,4,13,6,21,0.20,4,,103
2010-10-24,50,48,46,48,45,43,94,91,87,29.89,29.73,29.58,10,9,4,14,9,18,0.24,8,,125
2010-10-25,62,55,48,54,51,46,100,86,68,29.49,29.40,29.27,10,9,3,10,5,,0.04,8,,204
2010-10-26,60,50,39,57,48,34,94,83,71,29.19,28.72,28.47,10,9,5,31,18,47,0.37,8,,187
2010-10-27,39,37,35,37,34,30,93,87,75,29.48,29.14,28.67,10,9,5,32,22,48,0.13,8,,243
2010-10-28,39,36,33,34,28,21,87,71,60,30.18,29.92,29.50,10,10,5,22,18,34,0.02,8,,281
2010-10-29,42,33,24,23,20,16,86,60,36,30.20,30.09,29.90,10,10,10,14,8,16,0.00,3,,222
2010-10-30,39,34,30,32,27,19,86,70,45,29.99,29.83,29.72,10,10,10,13,5,20,0.00,3,,39
2010-10-31,42,35,28,28,27,27,93,72,57,30.27,30.17,30.04,10,10,10,10,5,,0.00,4,,5